sensor_id;sensor_type;location;lat;lon;timestamp;temperature;humidity
20442;DHT22;10380;52.102;20.614;2023-05-10T00:02:08;9.70;86.20
20442;DHT22;10380;52.102;20.614;2023-05-10T00:04:35;9.70;86.60
20442;DHT22;10380;52.102;20.614;2023-05-10T00:07:02;9.60;87.00
20442;DHT22;10380;52.102;20.614;2023-05-10T00:09:30;9.60;87.30
20442;DHT22;10380;52.102;20.614;2023-05-10T00:11:56;9.60;87.60
20442;DHT22;10380;52.102;20.614;2023-05-10T00:14:25;9.50;87.90
20442;DHT22;10380;52.102;20.614;2023-05-10T00:16:52;9.50;88.10
20442;DHT22;10380;52.102;20.614;2023-05-10T00:19:19;9.40;88.60
20442;DHT22;10380;52.102;20.614;2023-05-10T00:21:46;9.40;88.60
20442;DHT22;10380;52.102;20.614;2023-05-10T00:24:13;9.30;88.90
20442;DHT22;10380;52.102;20.614;2023-05-10T00:26:40;9.30;89.00
20442;DHT22;10380;52.102;20.614;2023-05-10T00:29:09;9.30;89.00
20442;DHT22;10380;52.102;20.614;2023-05-10T00:31:35;9.30;89.10
20442;DHT22;10380;52.102;20.614;2023-05-10T00:34:03;9.30;89.90
20442;DHT22;10380;52.102;20.614;2023-05-10T00:36:31;9.20;89.90
20442;DHT22;10380;52.102;20.614;2023-05-10T00:38:58;9.20;90.00
20442;DHT22;10380;52.102;20.614;2023-05-10T00:41:25;9.20;90.10
20442;DHT22;10380;52.102;20.614;2023-05-10T00:43:52;9.10;90.20
20442;DHT22;10380;52.102;20.614;2023-05-10T00:46:19;9.10;90.50
20442;DHT22;10380;52.102;20.614;2023-05-10T00:48:47;9.10;90.60
20442;DHT22;10380;52.102;20.614;2023-05-10T00:51:14;9.00;90.70
20442;DHT22;10380;52.102;20.614;2023-05-10T00:53:41;9.00;90.90
20442;DHT22;10380;52.102;20.614;2023-05-10T00:56:09;9.00;90.90
20442;DHT22;10380;52.102;20.614;2023-05-10T00:58:37;9.00;91.00
20442;DHT22;10380;52.102;20.614;2023-05-10T01:01:04;8.90;91.20
20442;DHT22;10380;52.102;20.614;2023-05-10T01:03:33;8.90;91.40
20442;DHT22;10380;52.102;20.614;2023-05-10T01:06:00;8.90;91.60
20442;DHT22;10380;52.102;20.614;2023-05-10T01:08:28;8.80;91.70
20442;DHT22;10380;52.102;20.614;2023-05-10T01:10:55;8.70;91.80
20442;DHT22;10380;52.102;20.614;2023-05-10T01:13:34;8.70;92.00
20442;DHT22;10380;52.102;20.614;2023-05-10T01:16:04;8.70;92.30
20442;DHT22;10380;52.102;20.614;2023-05-10T01:18:33;8.60;92.50
20442;DHT22;10380;52.102;20.614;2023-05-10T01:21:15;8.60;92.60
20442;DHT22;10380;52.102;20.614;2023-05-10T01:29:18;8.40;93.30
20442;DHT22;10380;52.102;20.614;2023-05-10T01:35:10;8.30;93.60
20442;DHT22;10380;52.102;20.614;2023-05-10T01:37:49;8.20;93.80
20442;DHT22;10380;52.102;20.614;2023-05-10T01:40:39;8.20;94.10
20442;DHT22;10380;52.102;20.614;2023-05-10T01:43:13;8.10;94.30
20442;DHT22;10380;52.102;20.614;2023-05-10T01:46:10;8.00;94.50
20442;DHT22;10380;52.102;20.614;2023-05-10T01:48:47;8.00;94.80
20442;DHT22;10380;52.102;20.614;2023-05-10T01:51:23;8.00;95.00
20442;DHT22;10380;52.102;20.614;2023-05-10T01:53:54;7.90;95.10
20442;DHT22;10380;52.102;20.614;2023-05-10T01:56:26;7.90;95.20
20442;DHT22;10380;52.102;20.614;2023-05-10T01:58:55;7.80;95.50
20442;DHT22;10380;52.102;20.614;2023-05-10T02:01:23;7.70;95.70
20442;DHT22;10380;52.102;20.614;2023-05-10T02:03:51;7.70;95.80
20442;DHT22;10380;52.102;20.614;2023-05-10T02:06:20;7.70;96.00
20442;DHT22;10380;52.102;20.614;2023-05-10T02:08:49;7.70;96.20
20442;DHT22;10380;52.102;20.614;2023-05-10T02:11:18;7.70;96.40
20442;DHT22;10380;52.102;20.614;2023-05-10T02:13:49;7.70;96.60
20442;DHT22;10380;52.102;20.614;2023-05-10T02:16:17;7.60;96.60
20442;DHT22;10380;52.102;20.614;2023-05-10T02:18:45;7.60;96.70
20442;DHT22;10380;52.102;20.614;2023-05-10T02:21:15;7.50;96.80
20442;DHT22;10380;52.102;20.614;2023-05-10T02:23:43;7.50;96.90
20442;DHT22;10380;52.102;20.614;2023-05-10T02:26:11;7.50;97.10
20442;DHT22;10380;52.102;20.614;2023-05-10T02:28:40;7.50;97.20
20442;DHT22;10380;52.102;20.614;2023-05-10T02:31:09;7.50;97.30
20442;DHT22;10380;52.102;20.614;2023-05-10T02:33:38;7.50;97.50
20442;DHT22;10380;52.102;20.614;2023-05-10T02:36:09;7.50;97.60
20442;DHT22;10380;52.102;20.614;2023-05-10T02:38:37;7.40;97.60
20442;DHT22;10380;52.102;20.614;2023-05-10T02:41:04;7.40;97.80
20442;DHT22;10380;52.102;20.614;2023-05-10T02:43:33;7.40;98.00
20442;DHT22;10380;52.102;20.614;2023-05-10T02:46:00;7.40;98.10
20442;DHT22;10380;52.102;20.614;2023-05-10T02:48:28;7.40;98.30
20442;DHT22;10380;52.102;20.614;2023-05-10T02:50:57;7.30;98.40
20442;DHT22;10380;52.102;20.614;2023-05-10T02:53:36;7.30;98.60
20442;DHT22;10380;52.102;20.614;2023-05-10T02:56:12;7.30;98.60
20442;DHT22;10380;52.102;20.614;2023-05-10T02:58:40;7.30;98.70
20442;DHT22;10380;52.102;20.614;2023-05-10T03:01:07;7.30;98.90
20442;DHT22;10380;52.102;20.614;2023-05-10T03:03:34;7.30;99.00
20442;DHT22;10380;52.102;20.614;2023-05-10T03:06:02;7.20;99.10
20442;DHT22;10380;52.102;20.614;2023-05-10T03:08:29;7.30;99.20
20442;DHT22;10380;52.102;20.614;2023-05-10T03:17:03;7.20;99.70
20442;DHT22;10380;52.102;20.614;2023-05-10T03:19:43;7.20;99.70
20442;DHT22;10380;52.102;20.614;2023-05-10T03:22:11;7.20;99.80
20442;DHT22;10380;52.102;20.614;2023-05-10T03:24:41;7.20;99.90
20442;DHT22;10380;52.102;20.614;2023-05-10T03:27:09;7.20;99.90
20442;DHT22;10380;52.102;20.614;2023-05-10T03:29:38;7.30;99.90
20442;DHT22;10380;52.102;20.614;2023-05-10T03:32:05;7.30;99.90
20442;DHT22;10380;52.102;20.614;2023-05-10T03:34:33;7.30;99.90
20442;DHT22;10380;52.102;20.614;2023-05-10T03:36:59;7.30;99.90
20442;DHT22;10380;52.102;20.614;2023-05-10T03:39:26;7.30;99.90
20442;DHT22;10380;52.102;20.614;2023-05-10T03:41:53;7.30;99.90
20442;DHT22;10380;52.102;20.614;2023-05-10T03:44:20;7.30;99.90
20442;DHT22;10380;52.102;20.614;2023-05-10T03:46:47;7.30;99.90
20442;DHT22;10380;52.102;20.614;2023-05-10T03:49:14;7.40;99.90
20442;DHT22;10380;52.102;20.614;2023-05-10T03:51:42;7.40;99.90
20442;DHT22;10380;52.102;20.614;2023-05-10T03:54:09;7.40;99.90
20442;DHT22;10380;52.102;20.614;2023-05-10T03:56:36;7.40;99.90
20442;DHT22;10380;52.102;20.614;2023-05-10T03:59:03;7.50;99.90
20442;DHT22;10380;52.102;20.614;2023-05-10T04:01:34;7.50;99.90
20442;DHT22;10380;52.102;20.614;2023-05-10T04:04:01;7.60;99.90
20442;DHT22;10380;52.102;20.614;2023-05-10T04:06:28;7.70;99.90
20442;DHT22;10380;52.102;20.614;2023-05-10T04:08:55;7.70;99.90
20442;DHT22;10380;52.102;20.614;2023-05-10T04:11:22;7.80;99.90
20442;DHT22;10380;52.102;20.614;2023-05-10T04:13:51;7.90;99.90
20442;DHT22;10380;52.102;20.614;2023-05-10T04:16:18;8.00;99.90
20442;DHT22;10380;52.102;20.614;2023-05-10T04:18:45;8.10;99.90
20442;DHT22;10380;52.102;20.614;2023-05-10T04:21:12;8.20;99.90
20442;DHT22;10380;52.102;20.614;2023-05-10T04:23:42;8.20;99.90
20442;DHT22;10380;52.102;20.614;2023-05-10T04:26:09;8.30;99.90
20442;DHT22;10380;52.102;20.614;2023-05-10T04:28:36;8.30;99.90
20442;DHT22;10380;52.102;20.614;2023-05-10T04:31:04;8.40;99.90
20442;DHT22;10380;52.102;20.614;2023-05-10T04:33:32;8.40;99.90
20442;DHT22;10380;52.102;20.614;2023-05-10T04:35:59;8.50;99.90
20442;DHT22;10380;52.102;20.614;2023-05-10T04:38:26;8.50;99.90
20442;DHT22;10380;52.102;20.614;2023-05-10T04:40:53;8.60;99.90
20442;DHT22;10380;52.102;20.614;2023-05-10T04:43:20;8.70;99.90
20442;DHT22;10380;52.102;20.614;2023-05-10T04:45:47;8.80;99.90
20442;DHT22;10380;52.102;20.614;2023-05-10T04:48:14;8.90;99.90
20442;DHT22;10380;52.102;20.614;2023-05-10T04:50:41;8.90;99.90
20442;DHT22;10380;52.102;20.614;2023-05-10T04:53:08;9.00;99.90
20442;DHT22;10380;52.102;20.614;2023-05-10T04:55:35;9.10;99.90
20442;DHT22;10380;52.102;20.614;2023-05-10T04:58:02;9.20;99.90
20442;DHT22;10380;52.102;20.614;2023-05-10T05:00:29;9.20;99.90
20442;DHT22;10380;52.102;20.614;2023-05-10T05:02:56;9.30;99.90
20442;DHT22;10380;52.102;20.614;2023-05-10T05:05:23;9.50;99.90
20442;DHT22;10380;52.102;20.614;2023-05-10T05:07:50;9.50;99.90
20442;DHT22;10380;52.102;20.614;2023-05-10T05:10:17;9.60;99.90
20442;DHT22;10380;52.102;20.614;2023-05-10T05:12:45;9.70;99.80
20442;DHT22;10380;52.102;20.614;2023-05-10T05:15:11;9.80;99.70
20442;DHT22;10380;52.102;20.614;2023-05-10T05:17:38;9.80;99.40
20442;DHT22;10380;52.102;20.614;2023-05-10T05:20:06;9.90;99.40
20442;DHT22;10380;52.102;20.614;2023-05-10T05:22:33;10.00;99.40
20442;DHT22;10380;52.102;20.614;2023-05-10T05:25:00;10.10;99.40
20442;DHT22;10380;52.102;20.614;2023-05-10T05:27:29;10.20;99.30
20442;DHT22;10380;52.102;20.614;2023-05-10T05:29:57;10.30;99.10
20442;DHT22;10380;52.102;20.614;2023-05-10T05:32:25;10.40;99.10
20442;DHT22;10380;52.102;20.614;2023-05-10T05:34:53;10.50;99.00
20442;DHT22;10380;52.102;20.614;2023-05-10T05:37:20;10.60;98.50
20442;DHT22;10380;52.102;20.614;2023-05-10T05:39:48;10.70;98.60
20442;DHT22;10380;52.102;20.614;2023-05-10T05:42:15;10.80;98.80
20442;DHT22;10380;52.102;20.614;2023-05-10T05:44:44;10.90;98.60
20442;DHT22;10380;52.102;20.614;2023-05-10T05:47:11;11.00;98.60
20442;DHT22;10380;52.102;20.614;2023-05-10T05:49:38;11.10;98.40
20442;DHT22;10380;52.102;20.614;2023-05-10T05:52:06;11.20;98.40
20442;DHT22;10380;52.102;20.614;2023-05-10T05:54:34;11.30;98.10
20442;DHT22;10380;52.102;20.614;2023-05-10T05:57:01;11.40;98.20
20442;DHT22;10380;52.102;20.614;2023-05-10T05:59:27;11.50;97.70
20442;DHT22;10380;52.102;20.614;2023-05-10T06:01:54;11.60;97.60
20442;DHT22;10380;52.102;20.614;2023-05-10T06:04:22;11.70;97.70
20442;DHT22;10380;52.102;20.614;2023-05-10T06:06:49;11.80;97.50
20442;DHT22;10380;52.102;20.614;2023-05-10T06:09:16;11.90;97.50
20442;DHT22;10380;52.102;20.614;2023-05-10T06:11:42;12.10;97.30
20442;DHT22;10380;52.102;20.614;2023-05-10T06:14:09;12.20;97.00
20442;DHT22;10380;52.102;20.614;2023-05-10T06:16:36;12.30;96.80
20442;DHT22;10380;52.102;20.614;2023-05-10T06:19:03;12.40;96.30
20442;DHT22;10380;52.102;20.614;2023-05-10T06:21:30;12.50;96.00
20442;DHT22;10380;52.102;20.614;2023-05-10T06:23:57;12.60;95.90
20442;DHT22;10380;52.102;20.614;2023-05-10T06:26:24;12.70;95.70
20442;DHT22;10380;52.102;20.614;2023-05-10T06:28:51;12.80;95.60
20442;DHT22;10380;52.102;20.614;2023-05-10T06:31:18;13.00;95.00
20442;DHT22;10380;52.102;20.614;2023-05-10T06:33:45;13.00;94.60
20442;DHT22;10380;52.102;20.614;2023-05-10T06:36:12;13.10;94.20
20442;DHT22;10380;52.102;20.614;2023-05-10T06:38:39;13.20;94.30
20442;DHT22;10380;52.102;20.614;2023-05-10T06:41:07;13.20;93.90
20442;DHT22;10380;52.102;20.614;2023-05-10T06:43:34;13.30;93.60
20442;DHT22;10380;52.102;20.614;2023-05-10T06:46:01;13.40;93.50
20442;DHT22;10380;52.102;20.614;2023-05-10T06:48:28;13.50;93.10
20442;DHT22;10380;52.102;20.614;2023-05-10T06:50:55;13.60;93.20
20442;DHT22;10380;52.102;20.614;2023-05-10T06:53:22;13.70;92.50
20442;DHT22;10380;52.102;20.614;2023-05-10T06:55:49;13.70;92.00
20442;DHT22;10380;52.102;20.614;2023-05-10T06:58:17;13.80;92.00
20442;DHT22;10380;52.102;20.614;2023-05-10T07:00:44;13.90;91.90
20442;DHT22;10380;52.102;20.614;2023-05-10T07:03:12;14.00;91.90
20442;DHT22;10380;52.102;20.614;2023-05-10T07:05:39;14.10;91.50
20442;DHT22;10380;52.102;20.614;2023-05-10T07:08:06;14.30;91.40
20442;DHT22;10380;52.102;20.614;2023-05-10T07:10:33;14.40;90.90
20442;DHT22;10380;52.102;20.614;2023-05-10T07:13:00;14.40;89.80
20442;DHT22;10380;52.102;20.614;2023-05-10T07:15:28;14.50;89.00
20442;DHT22;10380;52.102;20.614;2023-05-10T07:17:57;14.60;88.10
20442;DHT22;10380;52.102;20.614;2023-05-10T07:20:24;14.60;86.20
20442;DHT22;10380;52.102;20.614;2023-05-10T07:22:51;14.60;85.40
20442;DHT22;10380;52.102;20.614;2023-05-10T07:25:18;14.70;85.60
20442;DHT22;10380;52.102;20.614;2023-05-10T07:27:45;14.70;85.70
20442;DHT22;10380;52.102;20.614;2023-05-10T07:30:12;14.70;84.50
20442;DHT22;10380;52.102;20.614;2023-05-10T07:32:39;14.80;83.90
20442;DHT22;10380;52.102;20.614;2023-05-10T07:35:08;14.80;84.20
20442;DHT22;10380;52.102;20.614;2023-05-10T07:37:36;14.90;83.50
20442;DHT22;10380;52.102;20.614;2023-05-10T07:40:03;14.90;82.60
20442;DHT22;10380;52.102;20.614;2023-05-10T07:42:30;15.00;81.80
20442;DHT22;10380;52.102;20.614;2023-05-10T07:44:58;15.10;82.00
20442;DHT22;10380;52.102;20.614;2023-05-10T07:47:24;15.20;82.30
20442;DHT22;10380;52.102;20.614;2023-05-10T07:49:52;15.30;80.80
20442;DHT22;10380;52.102;20.614;2023-05-10T07:52:20;15.40;79.90
20442;DHT22;10380;52.102;20.614;2023-05-10T07:54:48;15.40;79.20
20442;DHT22;10380;52.102;20.614;2023-05-10T07:57:16;15.50;77.60
20442;DHT22;10380;52.102;20.614;2023-05-10T07:59:44;15.60;77.40
20442;DHT22;10380;52.102;20.614;2023-05-10T08:02:11;15.70;78.00
20442;DHT22;10380;52.102;20.614;2023-05-10T08:04:38;15.80;76.70
20442;DHT22;10380;52.102;20.614;2023-05-10T08:07:05;15.80;75.70
20442;DHT22;10380;52.102;20.614;2023-05-10T08:09:32;15.80;75.30
20442;DHT22;10380;52.102;20.614;2023-05-10T08:11:59;15.80;75.60
20442;DHT22;10380;52.102;20.614;2023-05-10T08:14:28;15.90;75.60
20442;DHT22;10380;52.102;20.614;2023-05-10T08:16:55;15.90;74.40
20442;DHT22;10380;52.102;20.614;2023-05-10T08:19:22;15.90;73.80
20442;DHT22;10380;52.102;20.614;2023-05-10T08:21:50;15.90;74.10
20442;DHT22;10380;52.102;20.614;2023-05-10T08:24:17;16.00;74.40
20442;DHT22;10380;52.102;20.614;2023-05-10T08:26:44;16.00;73.30
20442;DHT22;10380;52.102;20.614;2023-05-10T08:29:11;16.10;73.20
20442;DHT22;10380;52.102;20.614;2023-05-10T08:31:38;16.10;73.20
20442;DHT22;10380;52.102;20.614;2023-05-10T08:34:05;16.10;72.60
20442;DHT22;10380;52.102;20.614;2023-05-10T08:36:33;16.10;71.50
20442;DHT22;10380;52.102;20.614;2023-05-10T08:39:00;16.10;71.90
20442;DHT22;10380;52.102;20.614;2023-05-10T08:41:27;16.20;72.40
20442;DHT22;10380;52.102;20.614;2023-05-10T08:43:54;16.20;72.20
20442;DHT22;10380;52.102;20.614;2023-05-10T08:46:22;16.20;72.10
20442;DHT22;10380;52.102;20.614;2023-05-10T08:48:50;16.30;71.70
20442;DHT22;10380;52.102;20.614;2023-05-10T08:51:21;16.30;70.80
20442;DHT22;10380;52.102;20.614;2023-05-10T08:53:49;16.30;69.60
20442;DHT22;10380;52.102;20.614;2023-05-10T08:56:16;16.30;69.00
20442;DHT22;10380;52.102;20.614;2023-05-10T08:58:44;16.30;68.40
20442;DHT22;10380;52.102;20.614;2023-05-10T09:01:12;16.30;68.10
20442;DHT22;10380;52.102;20.614;2023-05-10T09:03:40;16.30;67.30
20442;DHT22;10380;52.102;20.614;2023-05-10T09:06:07;16.30;67.50
20442;DHT22;10380;52.102;20.614;2023-05-10T09:08:36;16.40;67.70
20442;DHT22;10380;52.102;20.614;2023-05-10T09:11:03;16.40;67.90
20442;DHT22;10380;52.102;20.614;2023-05-10T09:13:30;16.50;68.20
20442;DHT22;10380;52.102;20.614;2023-05-10T09:15:59;16.50;68.20
20442;DHT22;10380;52.102;20.614;2023-05-10T09:18:39;16.50;66.90
20442;DHT22;10380;52.102;20.614;2023-05-10T09:21:06;16.50;66.20
20442;DHT22;10380;52.102;20.614;2023-05-10T09:23:33;16.60;66.10
20442;DHT22;10380;52.102;20.614;2023-05-10T09:26:05;16.50;65.90
20442;DHT22;10380;52.102;20.614;2023-05-10T09:31:18;16.60;66.00
20442;DHT22;10380;52.102;20.614;2023-05-10T09:33:46;16.60;67.00
20442;DHT22;10380;52.102;20.614;2023-05-10T09:36:14;16.60;67.30
20442;DHT22;10380;52.102;20.614;2023-05-10T09:38:52;16.60;67.90
20442;DHT22;10380;52.102;20.614;2023-05-10T09:41:22;16.60;66.90
20442;DHT22;10380;52.102;20.614;2023-05-10T09:43:49;16.60;67.60
20442;DHT22;10380;52.102;20.614;2023-05-10T09:46:16;16.70;67.20
20442;DHT22;10380;52.102;20.614;2023-05-10T09:48:45;16.80;67.50
20442;DHT22;10380;52.102;20.614;2023-05-10T09:53:47;16.80;66.90
20442;DHT22;10380;52.102;20.614;2023-05-10T09:56:32;16.80;67.30
20442;DHT22;10380;52.102;20.614;2023-05-10T09:59:05;16.90;67.30
20442;DHT22;10380;52.102;20.614;2023-05-10T10:01:33;16.90;67.40
20442;DHT22;10380;52.102;20.614;2023-05-10T10:04:03;16.90;68.10
20442;DHT22;10380;52.102;20.614;2023-05-10T10:06:38;17.00;67.00
20442;DHT22;10380;52.102;20.614;2023-05-10T10:09:06;17.00;66.70
20442;DHT22;10380;52.102;20.614;2023-05-10T10:11:35;17.00;66.70
20442;DHT22;10380;52.102;20.614;2023-05-10T10:14:02;17.00;67.70
20442;DHT22;10380;52.102;20.614;2023-05-10T10:16:30;17.10;67.10
20442;DHT22;10380;52.102;20.614;2023-05-10T10:18:57;17.10;68.10
20442;DHT22;10380;52.102;20.614;2023-05-10T10:21:24;17.20;66.30
20442;DHT22;10380;52.102;20.614;2023-05-10T10:23:52;17.10;65.50
20442;DHT22;10380;52.102;20.614;2023-05-10T10:26:20;17.20;66.20
20442;DHT22;10380;52.102;20.614;2023-05-10T10:34:41;17.20;66.70
20442;DHT22;10380;52.102;20.614;2023-05-10T10:37:08;17.20;66.80
20442;DHT22;10380;52.102;20.614;2023-05-10T10:39:35;17.30;67.20
20442;DHT22;10380;52.102;20.614;2023-05-10T10:42:04;17.30;67.00
20442;DHT22;10380;52.102;20.614;2023-05-10T10:52:32;17.60;65.90
20442;DHT22;10380;52.102;20.614;2023-05-10T11:00:27;17.60;65.80
20442;DHT22;10380;52.102;20.614;2023-05-10T11:08:13;17.60;64.90
20442;DHT22;10380;52.102;20.614;2023-05-10T11:10:48;17.70;65.10
20442;DHT22;10380;52.102;20.614;2023-05-10T11:13:15;17.70;65.30
20442;DHT22;10380;52.102;20.614;2023-05-10T11:15:49;17.70;65.80
20442;DHT22;10380;52.102;20.614;2023-05-10T11:18:20;17.80;66.50
20442;DHT22;10380;52.102;20.614;2023-05-10T11:20:58;17.90;66.60
20442;DHT22;10380;52.102;20.614;2023-05-10T11:23:49;17.90;65.10
20442;DHT22;10380;52.102;20.614;2023-05-10T11:26:18;18.00;65.40
20442;DHT22;10380;52.102;20.614;2023-05-10T11:28:46;18.10;65.00
20442;DHT22;10380;52.102;20.614;2023-05-10T11:31:18;18.10;64.40
20442;DHT22;10380;52.102;20.614;2023-05-10T11:33:47;18.20;64.10
20442;DHT22;10380;52.102;20.614;2023-05-10T11:36:20;18.40;64.10
20442;DHT22;10380;52.102;20.614;2023-05-10T11:38:48;18.50;64.20
20442;DHT22;10380;52.102;20.614;2023-05-10T11:41:18;18.80;63.30
20442;DHT22;10380;52.102;20.614;2023-05-10T11:43:52;19.10;62.70
20442;DHT22;10380;52.102;20.614;2023-05-10T11:46:21;19.50;62.10
20442;DHT22;10380;52.102;20.614;2023-05-10T11:48:54;20.20;62.00
20442;DHT22;10380;52.102;20.614;2023-05-10T11:51:23;21.00;61.10
20442;DHT22;10380;52.102;20.614;2023-05-10T11:53:53;21.90;59.20
20442;DHT22;10380;52.102;20.614;2023-05-10T11:56:20;22.80;58.00
20442;DHT22;10380;52.102;20.614;2023-05-10T11:58:53;23.70;57.00
20442;DHT22;10380;52.102;20.614;2023-05-10T12:01:21;24.60;55.90
20442;DHT22;10380;52.102;20.614;2023-05-10T12:03:50;25.50;54.80
20442;DHT22;10380;52.102;20.614;2023-05-10T12:06:19;26.40;53.60
20442;DHT22;10380;52.102;20.614;2023-05-10T12:08:48;27.20;52.70
20442;DHT22;10380;52.102;20.614;2023-05-10T12:11:19;28.00;51.90
20442;DHT22;10380;52.102;20.614;2023-05-10T12:13:48;28.80;50.40
20442;DHT22;10380;52.102;20.614;2023-05-10T12:16:21;29.10;48.00
20442;DHT22;10380;52.102;20.614;2023-05-10T12:18:52;29.40;47.10
20442;DHT22;10380;52.102;20.614;2023-05-10T12:21:21;29.70;46.30
20442;DHT22;10380;52.102;20.614;2023-05-10T12:23:53;29.70;45.30
20442;DHT22;10380;52.102;20.614;2023-05-10T12:26:25;29.80;44.80
20442;DHT22;10380;52.102;20.614;2023-05-10T12:28:53;29.90;44.30
20442;DHT22;10380;52.102;20.614;2023-05-10T12:31:20;30.10;44.30
20442;DHT22;10380;52.102;20.614;2023-05-10T12:33:48;30.30;43.40
20442;DHT22;10380;52.102;20.614;2023-05-10T12:36:16;30.60;43.40
20442;DHT22;10380;52.102;20.614;2023-05-10T12:38:47;30.70;43.10
20442;DHT22;10380;52.102;20.614;2023-05-10T12:41:16;31.00;42.70
20442;DHT22;10380;52.102;20.614;2023-05-10T12:43:44;31.30;42.40
20442;DHT22;10380;52.102;20.614;2023-05-10T12:46:14;31.70;41.70
20442;DHT22;10380;52.102;20.614;2023-05-10T12:48:42;31.70;41.10
20442;DHT22;10380;52.102;20.614;2023-05-10T12:51:10;31.70;40.80
20442;DHT22;10380;52.102;20.614;2023-05-10T12:53:39;31.70;40.90
20442;DHT22;10380;52.102;20.614;2023-05-10T12:56:10;31.80;40.90
20442;DHT22;10380;52.102;20.614;2023-05-10T12:58:38;32.00;40.30
20442;DHT22;10380;52.102;20.614;2023-05-10T13:01:05;32.20;40.00
20442;DHT22;10380;52.102;20.614;2023-05-10T13:03:32;32.30;40.20
20442;DHT22;10380;52.102;20.614;2023-05-10T13:05:59;32.20;39.70
20442;DHT22;10380;52.102;20.614;2023-05-10T13:08:27;32.40;39.50
20442;DHT22;10380;52.102;20.614;2023-05-10T13:11:00;32.40;39.00
20442;DHT22;10380;52.102;20.614;2023-05-10T13:13:27;32.80;39.50
20442;DHT22;10380;52.102;20.614;2023-05-10T13:15:54;32.90;38.70
20442;DHT22;10380;52.102;20.614;2023-05-10T13:18:21;32.80;38.40
20442;DHT22;10380;52.102;20.614;2023-05-10T13:20:49;33.20;38.50
20442;DHT22;10380;52.102;20.614;2023-05-10T13:23:16;33.40;38.40
20442;DHT22;10380;52.102;20.614;2023-05-10T13:25:43;33.50;38.00
20442;DHT22;10380;52.102;20.614;2023-05-10T13:28:10;33.60;38.30
20442;DHT22;10380;52.102;20.614;2023-05-10T13:30:37;33.70;38.00
20442;DHT22;10380;52.102;20.614;2023-05-10T13:33:04;34.10;37.70
20442;DHT22;10380;52.102;20.614;2023-05-10T13:35:31;34.40;37.10
20442;DHT22;10380;52.102;20.614;2023-05-10T13:37:58;34.60;36.80
20442;DHT22;10380;52.102;20.614;2023-05-10T13:40:25;34.80;36.60
20442;DHT22;10380;52.102;20.614;2023-05-10T13:42:51;34.70;36.30
20442;DHT22;10380;52.102;20.614;2023-05-10T13:45:19;34.70;36.30
20442;DHT22;10380;52.102;20.614;2023-05-10T13:47:46;34.80;36.10
20442;DHT22;10380;52.102;20.614;2023-05-10T13:50:13;34.70;36.00
20442;DHT22;10380;52.102;20.614;2023-05-10T13:52:40;34.60;35.80
20442;DHT22;10380;52.102;20.614;2023-05-10T13:55:07;34.60;36.00
20442;DHT22;10380;52.102;20.614;2023-05-10T13:57:34;34.50;35.90
20442;DHT22;10380;52.102;20.614;2023-05-10T14:00:02;34.40;36.00
20442;DHT22;10380;52.102;20.614;2023-05-10T14:02:29;34.20;35.90
20442;DHT22;10380;52.102;20.614;2023-05-10T14:04:58;34.00;35.80
20442;DHT22;10380;52.102;20.614;2023-05-10T14:07:24;33.70;35.80
20442;DHT22;10380;52.102;20.614;2023-05-10T14:09:51;33.50;35.70
20442;DHT22;10380;52.102;20.614;2023-05-10T14:12:18;33.40;35.70
20442;DHT22;10380;52.102;20.614;2023-05-10T14:14:45;33.30;35.90
20442;DHT22;10380;52.102;20.614;2023-05-10T14:17:12;33.20;36.00
20442;DHT22;10380;52.102;20.614;2023-05-10T14:19:39;33.10;35.80
20442;DHT22;10380;52.102;20.614;2023-05-10T14:22:06;33.00;35.80
20442;DHT22;10380;52.102;20.614;2023-05-10T14:24:33;33.00;36.00
20442;DHT22;10380;52.102;20.614;2023-05-10T14:27:00;32.80;36.20
20442;DHT22;10380;52.102;20.614;2023-05-10T14:29:27;32.60;36.40
20442;DHT22;10380;52.102;20.614;2023-05-10T14:31:54;32.20;36.40
20442;DHT22;10380;52.102;20.614;2023-05-10T14:34:21;31.70;36.30
20442;DHT22;10380;52.102;20.614;2023-05-10T14:36:48;31.20;36.60
20442;DHT22;10380;52.102;20.614;2023-05-10T14:39:16;30.90;36.80
20442;DHT22;10380;52.102;20.614;2023-05-10T14:41:43;30.60;37.00
20442;DHT22;10380;52.102;20.614;2023-05-10T14:44:11;30.50;37.20
20442;DHT22;10380;52.102;20.614;2023-05-10T14:46:38;30.40;37.10
20442;DHT22;10380;52.102;20.614;2023-05-10T14:49:06;30.40;37.80
20442;DHT22;10380;52.102;20.614;2023-05-10T14:51:33;30.40;37.70
20442;DHT22;10380;52.102;20.614;2023-05-10T14:53:59;30.30;37.60
20442;DHT22;10380;52.102;20.614;2023-05-10T14:56:27;30.30;37.80
20442;DHT22;10380;52.102;20.614;2023-05-10T14:58:54;30.30;37.90
20442;DHT22;10380;52.102;20.614;2023-05-10T15:01:22;30.30;37.90
20442;DHT22;10380;52.102;20.614;2023-05-10T15:03:50;30.50;37.50
20442;DHT22;10380;52.102;20.614;2023-05-10T15:06:23;30.50;37.60
20442;DHT22;10380;52.102;20.614;2023-05-10T15:08:53;30.60;37.50
20442;DHT22;10380;52.102;20.614;2023-05-10T15:11:20;30.50;37.40
20442;DHT22;10380;52.102;20.614;2023-05-10T15:13:47;30.50;37.60
20442;DHT22;10380;52.102;20.614;2023-05-10T15:16:15;30.40;37.50
20442;DHT22;10380;52.102;20.614;2023-05-10T15:18:42;30.30;37.60
20442;DHT22;10380;52.102;20.614;2023-05-10T15:21:09;30.30;37.20
20442;DHT22;10380;52.102;20.614;2023-05-10T15:23:36;30.10;37.30
20442;DHT22;10380;52.102;20.614;2023-05-10T15:26:03;29.80;37.60
20442;DHT22;10380;52.102;20.614;2023-05-10T15:28:30;29.70;38.20
20442;DHT22;10380;52.102;20.614;2023-05-10T15:31:00;29.60;38.20
20442;DHT22;10380;52.102;20.614;2023-05-10T15:33:27;29.60;38.40
20442;DHT22;10380;52.102;20.614;2023-05-10T15:35:55;29.60;38.40
20442;DHT22;10380;52.102;20.614;2023-05-10T15:38:22;29.70;38.30
20442;DHT22;10380;52.102;20.614;2023-05-10T15:40:49;29.70;38.10
20442;DHT22;10380;52.102;20.614;2023-05-10T15:43:16;29.70;37.80
20442;DHT22;10380;52.102;20.614;2023-05-10T15:45:43;29.60;37.80
20442;DHT22;10380;52.102;20.614;2023-05-10T15:48:10;29.60;38.10
20442;DHT22;10380;52.102;20.614;2023-05-10T15:50:37;29.60;38.10
20442;DHT22;10380;52.102;20.614;2023-05-10T15:53:04;29.60;38.20
20442;DHT22;10380;52.102;20.614;2023-05-10T15:55:31;29.60;37.90
20442;DHT22;10380;52.102;20.614;2023-05-10T15:57:58;29.50;37.80
20442;DHT22;10380;52.102;20.614;2023-05-10T16:00:25;29.30;37.80
20442;DHT22;10380;52.102;20.614;2023-05-10T16:02:52;29.10;38.10
20442;DHT22;10380;52.102;20.614;2023-05-10T16:05:20;28.80;38.30
20442;DHT22;10380;52.102;20.614;2023-05-10T16:07:48;28.50;38.50
20442;DHT22;10380;52.102;20.614;2023-05-10T16:10:15;28.00;38.70
20442;DHT22;10380;52.102;20.614;2023-05-10T16:12:42;27.50;39.00